sensor_id;sensor_type;location;lat;lon;timestamp;P1;durP1;ratioP1;P2;durP2;ratioP2
16199;SDS011;8207;52.494;4.654;2022-07-22T00:02:20;6.55;;;2.33;;
16199;SDS011;8207;52.494;4.654;2022-07-22T00:04:47;6.53;;;1.85;;
16199;SDS011;8207;52.494;4.654;2022-07-22T00:07:14;5.95;;;1.92;;
16199;SDS011;8207;52.494;4.654;2022-07-22T00:09:41;7.63;;;1.88;;
16199;SDS011;8207;52.494;4.654;2022-07-22T00:12:08;4.43;;;1.50;;
16199;SDS011;8207;52.494;4.654;2022-07-22T00:14:37;5.85;;;1.65;;
16199;SDS011;8207;52.494;4.654;2022-07-22T00:17:04;6.28;;;2.10;;
16199;SDS011;8207;52.494;4.654;2022-07-22T00:19:31;4.82;;;1.80;;
16199;SDS011;8207;52.494;4.654;2022-07-22T00:21:57;3.42;;;1.67;;
16199;SDS011;8207;52.494;4.654;2022-07-22T00:24:24;5.82;;;1.63;;
16199;SDS011;8207;52.494;4.654;2022-07-22T00:26:51;4.85;;;1.50;;
16199;SDS011;8207;52.494;4.654;2022-07-22T00:29:18;4.25;;;1.42;;
16199;SDS011;8207;52.494;4.654;2022-07-22T00:31:47;4.78;;;1.85;;
16199;SDS011;8207;52.494;4.654;2022-07-22T00:34:14;3.13;;;1.50;;
16199;SDS011;8207;52.494;4.654;2022-07-22T00:36:40;5.68;;;1.70;;
16199;SDS011;8207;52.494;4.654;2022-07-22T00:39:07;4.07;;;1.50;;
16199;SDS011;8207;52.494;4.654;2022-07-22T00:41:34;3.83;;;1.45;;
16199;SDS011;8207;52.494;4.654;2022-07-22T00:44:02;3.00;;;1.50;;
16199;SDS011;8207;52.494;4.654;2022-07-22T00:46:31;3.70;;;1.38;;
16199;SDS011;8207;52.494;4.654;2022-07-22T00:49:00;4.30;;;1.60;;
16199;SDS011;8207;52.494;4.654;2022-07-22T00:51:29;2.97;;;1.48;;
16199;SDS011;8207;52.494;4.654;2022-07-22T00:53:57;3.85;;;1.38;;
16199;SDS011;8207;52.494;4.654;2022-07-22T00:56:24;2.45;;;1.40;;
16199;SDS011;8207;52.494;4.654;2022-07-22T00:58:52;1.50;;;1.20;;
16199;SDS011;8207;52.494;4.654;2022-07-22T01:01:21;2.08;;;1.10;;
16199;SDS011;8207;52.494;4.654;2022-07-22T01:03:48;2.33;;;1.23;;
16199;SDS011;8207;52.494;4.654;2022-07-22T01:06:16;3.70;;;1.50;;
16199;SDS011;8207;52.494;4.654;2022-07-22T01:08:43;4.55;;;1.42;;
16199;SDS011;8207;52.494;4.654;2022-07-22T01:11:11;4.28;;;1.52;;
16199;SDS011;8207;52.494;4.654;2022-07-22T01:13:39;2.35;;;1.00;;
16199;SDS011;8207;52.494;4.654;2022-07-22T01:16:07;2.20;;;1.20;;
16199;SDS011;8207;52.494;4.654;2022-07-22T01:18:35;2.42;;;1.10;;
16199;SDS011;8207;52.494;4.654;2022-07-22T01:21:05;3.55;;;1.23;;
16199;SDS011;8207;52.494;4.654;2022-07-22T01:23:33;1.95;;;1.10;;
16199;SDS011;8207;52.494;4.654;2022-07-22T01:26:00;3.13;;;1.20;;
16199;SDS011;8207;52.494;4.654;2022-07-22T01:28:27;2.30;;;1.35;;
16199;SDS011;8207;52.494;4.654;2022-07-22T01:30:54;5.30;;;1.65;;
16199;SDS011;8207;52.494;4.654;2022-07-22T01:33:22;5.15;;;1.30;;
16199;SDS011;8207;52.494;4.654;2022-07-22T01:35:49;5.53;;;1.42;;
16199;SDS011;8207;52.494;4.654;2022-07-22T01:38:18;2.50;;;1.20;;
16199;SDS011;8207;52.494;4.654;2022-07-22T01:40:45;3.92;;;1.20;;
16199;SDS011;8207;52.494;4.654;2022-07-22T01:43:13;3.70;;;1.35;;
16199;SDS011;8207;52.494;4.654;2022-07-22T01:45:42;2.90;;;1.25;;
16199;SDS011;8207;52.494;4.654;2022-07-22T01:48:10;4.70;;;1.20;;
16199;SDS011;8207;52.494;4.654;2022-07-22T01:50:37;2.22;;;1.00;;
16199;SDS011;8207;52.494;4.654;2022-07-22T01:53:05;2.88;;;1.38;;
16199;SDS011;8207;52.494;4.654;2022-07-22T01:55:34;2.88;;;1.35;;
16199;SDS011;8207;52.494;4.654;2022-07-22T01:58:01;1.77;;;0.88;;
16199;SDS011;8207;52.494;4.654;2022-07-22T02:00:29;3.17;;;1.10;;
16199;SDS011;8207;52.494;4.654;2022-07-22T02:02:56;2.38;;;1.08;;
16199;SDS011;8207;52.494;4.654;2022-07-22T02:05:23;3.38;;;1.20;;
16199;SDS011;8207;52.494;4.654;2022-07-22T02:07:50;2.30;;;0.80;;
16199;SDS011;8207;52.494;4.654;2022-07-22T02:10:17;3.63;;;1.13;;
16199;SDS011;8207;52.494;4.654;2022-07-22T02:12:45;1.48;;;0.80;;
16199;SDS011;8207;52.494;4.654;2022-07-22T02:15:12;4.20;;;1.50;;
16199;SDS011;8207;52.494;4.654;2022-07-22T02:17:39;1.98;;;1.00;;
16199;SDS011;8207;52.494;4.654;2022-07-22T02:20:06;3.30;;;0.95;;
16199;SDS011;8207;52.494;4.654;2022-07-22T02:22:34;2.03;;;0.98;;
16199;SDS011;8207;52.494;4.654;2022-07-22T02:25:01;2.35;;;1.20;;
16199;SDS011;8207;52.494;4.654;2022-07-22T02:27:29;1.73;;;0.90;;
16199;SDS011;8207;52.494;4.654;2022-07-22T02:29:57;1.75;;;1.00;;
16199;SDS011;8207;52.494;4.654;2022-07-22T02:32:24;1.98;;;1.00;;
16199;SDS011;8207;52.494;4.654;2022-07-22T02:34:51;1.77;;;0.82;;
16199;SDS011;8207;52.494;4.654;2022-07-22T02:37:18;1.15;;;0.80;;
16199;SDS011;8207;52.494;4.654;2022-07-22T02:39:44;0.85;;;0.63;;
16199;SDS011;8207;52.494;4.654;2022-07-22T02:42:11;1.80;;;0.80;;
16199;SDS011;8207;52.494;4.654;2022-07-22T02:44:38;3.45;;;1.08;;
16199;SDS011;8207;52.494;4.654;2022-07-22T02:47:07;2.95;;;0.80;;
16199;SDS011;8207;52.494;4.654;2022-07-22T02:49:34;1.10;;;1.00;;
16199;SDS011;8207;52.494;4.654;2022-07-22T02:52:01;1.48;;;0.90;;
16199;SDS011;8207;52.494;4.654;2022-07-22T02:54:28;0.82;;;0.80;;
16199;SDS011;8207;52.494;4.654;2022-07-22T02:56:54;1.10;;;0.80;;
16199;SDS011;8207;52.494;4.654;2022-07-22T02:59:21;2.05;;;1.00;;
16199;SDS011;8207;52.494;4.654;2022-07-22T03:01:48;3.20;;;1.00;;
16199;SDS011;8207;52.494;4.654;2022-07-22T03:04:17;1.83;;;1.08;;
16199;SDS011;8207;52.494;4.654;2022-07-22T03:06:43;1.58;;;1.05;;
16199;SDS011;8207;52.494;4.654;2022-07-22T03:09:10;2.30;;;1.00;;
16199;SDS011;8207;52.494;4.654;2022-07-22T03:11:37;1.88;;;1.10;;
16199;SDS011;8207;52.494;4.654;2022-07-22T03:14:04;1.98;;;0.98;;
16199;SDS011;8207;52.494;4.654;2022-07-22T03:16:31;2.30;;;1.25;;
16199;SDS011;8207;52.494;4.654;2022-07-22T03:18:58;1.67;;;0.98;;
16199;SDS011;8207;52.494;4.654;2022-07-22T03:21:26;6.53;;;1.63;;
16199;SDS011;8207;52.494;4.654;2022-07-22T03:23:53;2.85;;;1.25;;
16199;SDS011;8207;52.494;4.654;2022-07-22T03:26:20;4.38;;;1.58;;
16199;SDS011;8207;52.494;4.654;2022-07-22T03:28:48;2.38;;;1.27;;
16199;SDS011;8207;52.494;4.654;2022-07-22T03:31:15;1.52;;;1.20;;
16199;SDS011;8207;52.494;4.654;2022-07-22T03:33:42;4.05;;;1.40;;
16199;SDS011;8207;52.494;4.654;2022-07-22T03:36:08;2.35;;;1.45;;
16199;SDS011;8207;52.494;4.654;2022-07-22T03:38:37;5.60;;;1.60;;
16199;SDS011;8207;52.494;4.654;2022-07-22T03:41:04;2.90;;;1.38;;
16199;SDS011;8207;52.494;4.654;2022-07-22T03:43:30;3.88;;;1.40;;
16199;SDS011;8207;52.494;4.654;2022-07-22T03:45:58;4.28;;;1.52;;
16199;SDS011;8207;52.494;4.654;2022-07-22T03:48:24;5.10;;;1.80;;
16199;SDS011;8207;52.494;4.654;2022-07-22T03:50:52;3.28;;;1.13;;
16199;SDS011;8207;52.494;4.654;2022-07-22T03:53:19;3.78;;;1.60;;
16199;SDS011;8207;52.494;4.654;2022-07-22T03:55:47;3.80;;;1.20;;
16199;SDS011;8207;52.494;4.654;2022-07-22T03:58:15;1.70;;;1.45;;
16199;SDS011;8207;52.494;4.654;2022-07-22T04:00:42;3.80;;;1.30;;
16199;SDS011;8207;52.494;4.654;2022-07-22T04:03:09;4.65;;;1.73;;
16199;SDS011;8207;52.494;4.654;2022-07-22T04:05:36;4.47;;;1.88;;
16199;SDS011;8207;52.494;4.654;2022-07-22T04:08:03;3.90;;;1.50;;
16199;SDS011;8207;52.494;4.654;2022-07-22T04:10:30;5.53;;;1.75;;
16199;SDS011;8207;52.494;4.654;2022-07-22T04:12:58;6.20;;;1.63;;
16199;SDS011;8207;52.494;4.654;2022-07-22T04:15:25;4.70;;;1.65;;
16199;SDS011;8207;52.494;4.654;2022-07-22T04:17:52;4.53;;;1.50;;
16199;SDS011;8207;52.494;4.654;2022-07-22T04:20:19;4.13;;;1.90;;
16199;SDS011;8207;52.494;4.654;2022-07-22T04:22:46;6.13;;;1.75;;
16199;SDS011;8207;52.494;4.654;2022-07-22T04:25:13;7.32;;;1.75;;
16199;SDS011;8207;52.494;4.654;2022-07-22T04:27:40;4.68;;;1.70;;
16199;SDS011;8207;52.494;4.654;2022-07-22T04:30:09;3.92;;;1.58;;
16199;SDS011;8207;52.494;4.654;2022-07-22T04:32:36;2.67;;;1.45;;
16199;SDS011;8207;52.494;4.654;2022-07-22T04:35:04;3.13;;;1.50;;
16199;SDS011;8207;52.494;4.654;2022-07-22T04:37:31;6.68;;;2.03;;
16199;SDS011;8207;52.494;4.654;2022-07-22T04:39:58;2.85;;;1.40;;
16199;SDS011;8207;52.494;4.654;2022-07-22T04:42:25;2.15;;;1.30;;
16199;SDS011;8207;52.494;4.654;2022-07-22T04:44:52;3.95;;;1.30;;
16199;SDS011;8207;52.494;4.654;2022-07-22T04:47:20;4.15;;;1.70;;
16199;SDS011;8207;52.494;4.654;2022-07-22T04:49:47;7.50;;;1.60;;
16199;SDS011;8207;52.494;4.654;2022-07-22T04:52:16;4.32;;;1.88;;
16199;SDS011;8207;52.494;4.654;2022-07-22T04:54:43;3.45;;;1.52;;
16199;SDS011;8207;52.494;4.654;2022-07-22T04:57:10;5.30;;;1.75;;
16199;SDS011;8207;52.494;4.654;2022-07-22T04:59:36;2.78;;;1.30;;
16199;SDS011;8207;52.494;4.654;2022-07-22T05:02:03;2.25;;;1.40;;
16199;SDS011;8207;52.494;4.654;2022-07-22T05:04:32;7.10;;;1.67;;
16199;SDS011;8207;52.494;4.654;2022-07-22T05:06:58;3.40;;;1.60;;
16199;SDS011;8207;52.494;4.654;2022-07-22T05:09:28;2.88;;;1.73;;
16199;SDS011;8207;52.494;4.654;2022-07-22T05:11:54;3.28;;;1.77;;
16199;SDS011;8207;52.494;4.654;2022-07-22T05:14:21;5.05;;;1.50;;
16199;SDS011;8207;52.494;4.654;2022-07-22T05:16:48;6.80;;;2.28;;
16199;SDS011;8207;52.494;4.654;2022-07-22T05:19:15;4.03;;;1.63;;
16199;SDS011;8207;52.494;4.654;2022-07-22T05:21:43;3.25;;;1.40;;
16199;SDS011;8207;52.494;4.654;2022-07-22T05:24:10;2.55;;;1.42;;
16199;SDS011;8207;52.494;4.654;2022-07-22T05:26:37;2.95;;;1.33;;
16199;SDS011;8207;52.494;4.654;2022-07-22T05:29:04;2.58;;;1.52;;
16199;SDS011;8207;52.494;4.654;2022-07-22T05:31:31;2.72;;;1.10;;
16199;SDS011;8207;52.494;4.654;2022-07-22T05:33:57;1.65;;;1.35;;
16199;SDS011;8207;52.494;4.654;2022-07-22T05:36:24;2.75;;;1.30;;
16199;SDS011;8207;52.494;4.654;2022-07-22T05:38:53;3.72;;;1.45;;
16199;SDS011;8207;52.494;4.654;2022-07-22T05:41:19;2.47;;;1.38;;
16199;SDS011;8207;52.494;4.654;2022-07-22T05:43:46;3.67;;;1.73;;
16199;SDS011;8207;52.494;4.654;2022-07-22T05:46:13;2.42;;;1.40;;
16199;SDS011;8207;52.494;4.654;2022-07-22T05:48:40;2.33;;;1.20;;
16199;SDS011;8207;52.494;4.654;2022-07-22T05:51:10;3.15;;;1.50;;
16199;SDS011;8207;52.494;4.654;2022-07-22T05:53:38;2.58;;;1.33;;
16199;SDS011;8207;52.494;4.654;2022-07-22T05:56:07;4.10;;;1.42;;
16199;SDS011;8207;52.494;4.654;2022-07-22T05:58:36;3.30;;;1.00;;
16199;SDS011;8207;52.494;4.654;2022-07-22T06:01:03;2.08;;;1.10;;
16199;SDS011;8207;52.494;4.654;2022-07-22T06:03:30;2.20;;;1.30;;
16199;SDS011;8207;52.494;4.654;2022-07-22T06:05:57;3.78;;;1.30;;
16199;SDS011;8207;52.494;4.654;2022-07-22T06:08:26;6.22;;;1.52;;
16199;SDS011;8207;52.494;4.654;2022-07-22T06:10:53;3.33;;;1.50;;
16199;SDS011;8207;52.494;4.654;2022-07-22T06:13:22;2.63;;;1.10;;
16199;SDS011;8207;52.494;4.654;2022-07-22T06:15:49;3.75;;;1.40;;
16199;SDS011;8207;52.494;4.654;2022-07-22T06:18:16;5.97;;;1.73;;
16199;SDS011;8207;52.494;4.654;2022-07-22T06:20:42;3.25;;;1.38;;
16199;SDS011;8207;52.494;4.654;2022-07-22T06:23:10;4.03;;;1.38;;
16199;SDS011;8207;52.494;4.654;2022-07-22T06:25:36;3.30;;;1.42;;
16199;SDS011;8207;52.494;4.654;2022-07-22T06:28:04;3.15;;;1.00;;
16199;SDS011;8207;52.494;4.654;2022-07-22T06:30:32;5.13;;;1.30;;
16199;SDS011;8207;52.494;4.654;2022-07-22T06:32:59;2.63;;;1.20;;
16199;SDS011;8207;52.494;4.654;2022-07-22T06:35:26;2.67;;;1.10;;
16199;SDS011;8207;52.494;4.654;2022-07-22T06:37:53;3.95;;;1.13;;
16199;SDS011;8207;52.494;4.654;2022-07-22T06:40:20;1.10;;;1.00;;
16199;SDS011;8207;52.494;4.654;2022-07-22T06:42:47;1.88;;;1.13;;
16199;SDS011;8207;52.494;4.654;2022-07-22T06:45:14;1.30;;;0.90;;
16199;SDS011;8207;52.494;4.654;2022-07-22T06:47:42;2.00;;;1.02;;
16199;SDS011;8207;52.494;4.654;2022-07-22T06:50:09;1.98;;;1.13;;
16199;SDS011;8207;52.494;4.654;2022-07-22T06:52:43;3.15;;;1.27;;
16199;SDS011;8207;52.494;4.654;2022-07-22T06:55:11;4.25;;;1.23;;
16199;SDS011;8207;52.494;4.654;2022-07-22T06:57:38;3.92;;;1.20;;
16199;SDS011;8207;52.494;4.654;2022-07-22T07:00:05;2.80;;;1.30;;
16199;SDS011;8207;52.494;4.654;2022-07-22T07:02:34;3.90;;;1.10;;
16199;SDS011;8207;52.494;4.654;2022-07-22T07:05:02;2.63;;;1.60;;
16199;SDS011;8207;52.494;4.654;2022-07-22T07:07:30;2.80;;;1.42;;
16199;SDS011;8207;52.494;4.654;2022-07-22T07:09:57;1.70;;;1.20;;
16199;SDS011;8207;52.494;4.654;2022-07-22T07:12:24;4.32;;;1.50;;
16199;SDS011;8207;52.494;4.654;2022-07-22T07:14:51;2.15;;;1.10;;
16199;SDS011;8207;52.494;4.654;2022-07-22T07:17:18;2.67;;;1.13;;
16199;SDS011;8207;52.494;4.654;2022-07-22T07:19:44;2.38;;;1.20;;
16199;SDS011;8207;52.494;4.654;2022-07-22T07:22:13;1.60;;;1.00;;
16199;SDS011;8207;52.494;4.654;2022-07-22T07:24:39;1.65;;;0.70;;
16199;SDS011;8207;52.494;4.654;2022-07-22T07:27:07;3.58;;;1.60;;
16199;SDS011;8207;52.494;4.654;2022-07-22T07:29:34;4.13;;;1.20;;
16199;SDS011;8207;52.494;4.654;2022-07-22T07:32:01;2.05;;;0.82;;
16199;SDS011;8207;52.494;4.654;2022-07-22T07:34:28;2.33;;;1.52;;
16199;SDS011;8207;52.494;4.654;2022-07-22T07:36:55;4.38;;;1.65;;
16199;SDS011;8207;52.494;4.654;2022-07-22T07:39:24;1.35;;;1.05;;
16199;SDS011;8207;52.494;4.654;2022-07-22T07:41:51;1.48;;;0.90;;
16199;SDS011;8207;52.494;4.654;2022-07-22T07:44:18;1.00;;;0.82;;
16199;SDS011;8207;52.494;4.654;2022-07-22T07:46:45;2.15;;;1.02;;
16199;SDS011;8207;52.494;4.654;2022-07-22T07:49:12;2.97;;;1.00;;
16199;SDS011;8207;52.494;4.654;2022-07-22T07:51:39;1.30;;;1.05;;
16199;SDS011;8207;52.494;4.654;2022-07-22T07:54:06;2.45;;;0.93;;
16199;SDS011;8207;52.494;4.654;2022-07-22T07:56:34;1.85;;;1.10;;
16199;SDS011;8207;52.494;4.654;2022-07-22T07:59:01;2.75;;;1.05;;
16199;SDS011;8207;52.494;4.654;2022-07-22T08:01:28;1.15;;;0.90;;
16199;SDS011;8207;52.494;4.654;2022-07-22T08:03:55;4.45;;;1.05;;
16199;SDS011;8207;52.494;4.654;2022-07-22T08:06:22;2.90;;;0.98;;
16199;SDS011;8207;52.494;4.654;2022-07-22T08:08:50;1.90;;;1.02;;
16199;SDS011;8207;52.494;4.654;2022-07-22T08:11:17;2.70;;;1.10;;
16199;SDS011;8207;52.494;4.654;2022-07-22T08:13:45;1.80;;;1.10;;
16199;SDS011;8207;52.494;4.654;2022-07-22T08:16:12;2.42;;;1.17;;
16199;SDS011;8207;52.494;4.654;2022-07-22T08:18:39;4.05;;;1.27;;
16199;SDS011;8207;52.494;4.654;2022-07-22T08:21:06;1.38;;;0.90;;
16199;SDS011;8207;52.494;4.654;2022-07-22T08:23:33;1.38;;;0.90;;
16199;SDS011;8207;52.494;4.654;2022-07-22T08:26:00;3.47;;;1.08;;
16199;SDS011;8207;52.494;4.654;2022-07-22T08:28:27;1.17;;;0.90;;
16199;SDS011;8207;52.494;4.654;2022-07-22T08:30:56;2.25;;;1.10;;
16199;SDS011;8207;52.494;4.654;2022-07-22T08:33:23;3.83;;;1.20;;
16199;SDS011;8207;52.494;4.654;2022-07-22T08:35:49;2.88;;;1.00;;
16199;SDS011;8207;52.494;4.654;2022-07-22T08:38:16;1.85;;;1.08;;
16199;SDS011;8207;52.494;4.654;2022-07-22T08:40:43;1.85;;;1.20;;
16199;SDS011;8207;52.494;4.654;2022-07-22T08:43:10;3.15;;;1.30;;
16199;SDS011;8207;52.494;4.654;2022-07-22T08:45:38;3.88;;;1.33;;
16199;SDS011;8207;52.494;4.654;2022-07-22T08:48:08;2.67;;;1.17;;
16199;SDS011;8207;52.494;4.654;2022-07-22T08:50:35;2.83;;;1.27;;
16199;SDS011;8207;52.494;4.654;2022-07-22T08:53:02;1.73;;;1.08;;
16199;SDS011;8207;52.494;4.654;2022-07-22T08:55:29;1.55;;;1.08;;
16199;SDS011;8207;52.494;4.654;2022-07-22T08:57:56;1.92;;;1.23;;
16199;SDS011;8207;52.494;4.654;2022-07-22T09:00:23;3.10;;;1.00;;
16199;SDS011;8207;52.494;4.654;2022-07-22T09:02:50;1.17;;;0.95;;
16199;SDS011;8207;52.494;4.654;2022-07-22T09:05:18;1.65;;;1.10;;
16199;SDS011;8207;52.494;4.654;2022-07-22T09:07:46;1.88;;;1.02;;
16199;SDS011;8207;52.494;4.654;2022-07-22T09:10:13;2.80;;;0.90;;
16199;SDS011;8207;52.494;4.654;2022-07-22T09:12:54;3.08;;;0.80;;
16199;SDS011;8207;52.494;4.654;2022-07-22T09:15:25;4.78;;;1.42;;
16199;SDS011;8207;52.494;4.654;2022-07-22T09:17:53;1.40;;;1.00;;
16199;SDS011;8207;52.494;4.654;2022-07-22T09:20:22;4.28;;;1.08;;
16199;SDS011;8207;52.494;4.654;2022-07-22T09:22:50;6.68;;;1.23;;
16199;SDS011;8207;52.494;4.654;2022-07-22T09:25:19;2.40;;;1.30;;
16199;SDS011;8207;52.494;4.654;2022-07-22T09:27:49;2.58;;;1.02;;
16199;SDS011;8207;52.494;4.654;2022-07-22T09:30:17;3.65;;;0.90;;
16199;SDS011;8207;52.494;4.654;2022-07-22T09:32:45;2.90;;;0.90;;
16199;SDS011;8207;52.494;4.654;2022-07-22T09:35:13;1.83;;;0.85;;
16199;SDS011;8207;52.494;4.654;2022-07-22T09:37:52;4.45;;;0.95;;
16199;SDS011;8207;52.494;4.654;2022-07-22T09:40:21;2.80;;;1.00;;
16199;SDS011;8207;52.494;4.654;2022-07-22T09:42:50;2.75;;;1.20;;
16199;SDS011;8207;52.494;4.654;2022-07-22T09:45:21;2.00;;;0.90;;
16199;SDS011;8207;52.494;4.654;2022-07-22T09:47:49;1.95;;;1.13;;
16199;SDS011;8207;52.494;4.654;2022-07-22T09:50:17;2.80;;;1.08;;
16199;SDS011;8207;52.494;4.654;2022-07-22T09:52:46;2.15;;;1.00;;
16199;SDS011;8207;52.494;4.654;2022-07-22T09:55:16;2.35;;;1.23;;
16199;SDS011;8207;52.494;4.654;2022-07-22T09:57:44;1.65;;;1.23;;
16199;SDS011;8207;52.494;4.654;2022-07-22T10:00:12;5.70;;;1.30;;
16199;SDS011;8207;52.494;4.654;2022-07-22T10:02:41;2.45;;;1.20;;
16199;SDS011;8207;52.494;4.654;2022-07-22T10:05:12;1.83;;;1.20;;
16199;SDS011;8207;52.494;4.654;2022-07-22T10:07:40;2.72;;;1.25;;
16199;SDS011;8207;52.494;4.654;2022-07-22T10:10:10;2.92;;;1.15;;
16199;SDS011;8207;52.494;4.654;2022-07-22T10:12:39;2.00;;;1.17;;
16199;SDS011;8207;52.494;4.654;2022-07-22T10:15:07;3.03;;;1.25;;
16199;SDS011;8207;52.494;4.654;2022-07-22T10:17:35;1.58;;;1.00;;
16199;SDS011;8207;52.494;4.654;2022-07-22T10:20:04;3.13;;;1.20;;
16199;SDS011;8207;52.494;4.654;2022-07-22T10:22:49;2.50;;;1.10;;
16199;SDS011;8207;52.494;4.654;2022-07-22T10:25:23;3.58;;;1.40;;
16199;SDS011;8207;52.494;4.654;2022-07-22T10:27:53;2.30;;;0.95;;
16199;SDS011;8207;52.494;4.654;2022-07-22T10:30:23;2.45;;;0.90;;
16199;SDS011;8207;52.494;4.654;2022-07-22T10:33:04;3.20;;;1.60;;
16199;SDS011;8207;52.494;4.654;2022-07-22T10:35:33;5.30;;;1.30;;
16199;SDS011;8207;52.494;4.654;2022-07-22T10:38:02;2.85;;;1.50;;
16199;SDS011;8207;52.494;4.654;2022-07-22T10:40:31;1.77;;;0.93;;
16199;SDS011;8207;52.494;4.654;2022-07-22T10:43:14;1.23;;;1.00;;
16199;SDS011;8207;52.494;4.654;2022-07-22T10:45:42;2.78;;;1.13;;
16199;SDS011;8207;52.494;4.654;2022-07-22T10:48:13;3.10;;;1.15;;
16199;SDS011;8207;52.494;4.654;2022-07-22T10:50:45;2.83;;;1.33;;
16199;SDS011;8207;52.494;4.654;2022-07-22T10:53:40;3.53;;;1.30;;
16199;SDS011;8207;52.494;4.654;2022-07-22T10:56:15;4.05;;;1.40;;
16199;SDS011;8207;52.494;4.654;2022-07-22T11:01:38;5.63;;;1.25;;
16199;SDS011;8207;52.494;4.654;2022-07-22T11:04:11;2.83;;;1.23;;
16199;SDS011;8207;52.494;4.654;2022-07-22T11:06:41;2.03;;;0.90;;
16199;SDS011;8207;52.494;4.654;2022-07-22T11:09:08;1.35;;;1.10;;
16199;SDS011;8207;52.494;4.654;2022-07-22T11:11:38;3.67;;;1.23;;
16199;SDS011;8207;52.494;4.654;2022-07-22T11:14:15;1.55;;;1.00;;
16199;SDS011;8207;52.494;4.654;2022-07-22T11:16:50;5.10;;;1.42;;
16199;SDS011;8207;52.494;4.654;2022-07-22T11:19:21;3.72;;;1.10;;
16199;SDS011;8207;52.494;4.654;2022-07-22T11:21:51;2.30;;;1.00;;
16199;SDS011;8207;52.494;4.654;2022-07-22T11:24:19;3.60;;;1.17;;
16199;SDS011;8207;52.494;4.654;2022-07-22T11:26:47;2.42;;;1.13;;
16199;SDS011;8207;52.494;4.654;2022-07-22T11:29:17;2.75;;;1.48;;
16199;SDS011;8207;52.494;4.654;2022-07-22T11:31:50;4.25;;;1.42;;
16199;SDS011;8207;52.494;4.654;2022-07-22T11:34:17;2.25;;;1.13;;
16199;SDS011;8207;52.494;4.654;2022-07-22T11:36:45;4.10;;;1.60;;
16199;SDS011;8207;52.494;4.654;2022-07-22T11:39:13;2.45;;;0.95;;
16199;SDS011;8207;52.494;4.654;2022-07-22T11:41:43;1.95;;;1.10;;
16199;SDS011;8207;52.494;4.654;2022-07-22T11:44:10;2.58;;;0.98;;
16199;SDS011;8207;52.494;4.654;2022-07-22T11:46:39;3.15;;;1.00;;
16199;SDS011;8207;52.494;4.654;2022-07-22T11:49:08;1.65;;;1.10;;
16199;SDS011;8207;52.494;4.654;2022-07-22T11:51:38;3.05;;;1.20;;
16199;SDS011;8207;52.494;4.654;2022-07-22T11:54:05;1.70;;;0.90;;
16199;SDS011;8207;52.494;4.654;2022-07-22T11:56:33;2.03;;;1.08;;
16199;SDS011;8207;52.494;4.654;2022-07-22T11:59:01;1.98;;;1.10;;
16199;SDS011;8207;52.494;4.654;2022-07-22T12:01:30;3.13;;;1.10;;
16199;SDS011;8207;52.494;4.654;2022-07-22T12:04:00;3.85;;;1.15;;
16199;SDS011;8207;52.494;4.654;2022-07-22T12:06:30;2.13;;;1.10;;
16199;SDS011;8207;52.494;4.654;2022-07-22T12:09:02;2.13;;;1.38;;
16199;SDS011;8207;52.494;4.654;2022-07-22T12:11:31;2.05;;;1.10;;
16199;SDS011;8207;52.494;4.654;2022-07-22T12:14:04;1.83;;;1.00;;
16199;SDS011;8207;52.494;4.654;2022-07-22T12:16:32;1.45;;;1.00;;
16199;SDS011;8207;52.494;4.654;2022-07-22T12:19:02;0.95;;;0.75;;
16199;SDS011;8207;52.494;4.654;2022-07-22T12:21:31;1.38;;;1.02;;
16199;SDS011;8207;52.494;4.654;2022-07-22T12:24:00;1.42;;;0.85;;
16199;SDS011;8207;52.494;4.654;2022-07-22T12:26:38;2.60;;;0.88;;
16199;SDS011;8207;52.494;4.654;2022-07-22T12:29:18;3.47;;;0.90;;
16199;SDS011;8207;52.494;4.654;2022-07-22T12:31:48;1.92;;;0.98;;
16199;SDS011;8207;52.494;4.654;2022-07-22T12:34:17;2.53;;;1.20;;
16199;SDS011;8207;52.494;4.654;2022-07-22T12:36:56;1.88;;;0.90;;
16199;SDS011;8207;52.494;4.654;2022-07-22T12:39:23;2.28;;;0.93;;
16199;SDS011;8207;52.494;4.654;2022-07-22T12:41:50;1.48;;;1.00;;
16199;SDS011;8207;52.494;4.654;2022-07-22T12:44:19;2.53;;;1.00;;
16199;SDS011;8207;52.494;4.654;2022-07-22T12:46:47;3.05;;;1.10;;
16199;SDS011;8207;52.494;4.654;2022-07-22T12:49:18;3.60;;;1.15;;
16199;SDS011;8207;52.494;4.654;2022-07-22T12:52:06;3.20;;;1.15;;
16199;SDS011;8207;52.494;4.654;2022-07-22T12:54:35;3.70;;;1.15;;
16199;SDS011;8207;52.494;4.654;2022-07-22T12:57:02;2.90;;;1.50;;
16199;SDS011;8207;52.494;4.654;2022-07-22T12:59:30;2.88;;;1.00;;
16199;SDS011;8207;52.494;4.654;2022-07-22T13:01:57;4.90;;;1.48;;
16199;SDS011;8207;52.494;4.654;2022-07-22T13:04:26;1.90;;;1.00;;
16199;SDS011;8207;52.494;4.654;2022-07-22T13:06:53;5.15;;;1.52;;
16199;SDS011;8207;52.494;4.654;2022-07-22T13:09:20;2.47;;;1.10;;
16199;SDS011;8207;52.494;4.654;2022-07-22T13:11:47;1.88;;;0.88;;
16199;SDS011;8207;52.494;4.654;2022-07-22T13:14:14;5.15;;;1.80;;
16199;SDS011;8207;52.494;4.654;2022-07-22T13:16:41;2.83;;;1.10;;
16199;SDS011;8207;52.494;4.654;2022-07-22T13:19:08;2.85;;;1.25;;
16199;SDS011;8207;52.494;4.654;2022-07-22T13:21:36;1.23;;;1.10;;
16199;SDS011;8207;52.494;4.654;2022-07-22T13:24:03;2.25;;;1.30;;
16199;SDS011;8207;52.494;4.654;2022-07-22T13:26:30;2.80;;;1.10;;
16199;SDS011;8207;52.494;4.654;2022-07-22T13:28:57;4.57;;;1.55;;
16199;SDS011;8207;52.494;4.654;2022-07-22T13:31:24;2.25;;;1.35;;
16199;SDS011;8207;52.494;4.654;2022-07-22T13:33:51;1.45;;;1.00;;
16199;SDS011;8207;52.494;4.654;2022-07-22T13:36:18;1.27;;;0.90;;
16199;SDS011;8207;52.494;4.654;2022-07-22T13:38:48;1.95;;;0.80;;
16199;SDS011;8207;52.494;4.654;2022-07-22T13:41:16;2.95;;;0.95;;
16199;SDS011;8207;52.494;4.654;2022-07-22T13:43:43;1.95;;;0.80;;
16199;SDS011;8207;52.494;4.654;2022-07-22T13:46:11;3.20;;;1.00;;
16199;SDS011;8207;52.494;4.654;2022-07-22T13:48:38;2.42;;;1.00;;
16199;SDS011;8207;52.494;4.654;2022-07-22T13:51:05;2.25;;;1.00;;
16199;SDS011;8207;52.494;4.654;2022-07-22T13:53:32;3.90;;;1.00;;
16199;SDS011;8207;52.494;4.654;2022-07-22T13:56:01;2.58;;;0.90;;
16199;SDS011;8207;52.494;4.654;2022-07-22T13:58:28;1.15;;;0.70;;
16199;SDS011;8207;52.494;4.654;2022-07-22T14:00:56;2.53;;;1.00;;
16199;SDS011;8207;52.494;4.654;2022-07-22T14:03:23;3.72;;;1.05;;
16199;SDS011;8207;52.494;4.654;2022-07-22T14:05:50;2.55;;;1.10;;
16199;SDS011;8207;52.494;4.654;2022-07-22T14:08:17;2.05;;;0.90;;
16199;SDS011;8207;52.494;4.654;2022-07-22T14:10:43;3.50;;;0.88;;
16199;SDS011;8207;52.494;4.654;2022-07-22T14:13:12;2.00;;;0.80;;
16199;SDS011;8207;52.494;4.654;2022-07-22T14:15:39;0.93;;;0.70;;
16199;SDS011;8207;52.494;4.654;2022-07-22T14:18:06;1.05;;;0.73;;
16199;SDS011;8207;52.494;4.654;2022-07-22T14:20:33;3.60;;;1.17;;
16199;SDS011;8207;52.494;4.654;2022-07-22T14:23:01;2.40;;;0.80;;
16199;SDS011;8207;52.494;4.654;2022-07-22T14:25:30;1.52;;;0.80;;
16199;SDS011;8207;52.494;4.654;2022-07-22T14:27:57;1.75;;;0.90;;
16199;SDS011;8207;52.494;4.654;2022-07-22T14:30:25;1.02;;;0.80;;
16199;SDS011;8207;52.494;4.654;2022-07-22T14:32:53;1.20;;;0.93;;
16199;SDS011;8207;52.494;4.654;2022-07-22T14:35:20;1.02;;;0.63;;
16199;SDS011;8207;52.494;4.654;2022-07-22T14:37:47;1.90;;;0.73;;
16199;SDS011;8207;52.494;4.654;2022-07-22T14:40:14;1.85;;;0.75;;
16199;SDS011;8207;52.494;4.654;2022-07-22T14:42:41;1.33;;;0.90;;
16199;SDS011;8207;52.494;4.654;2022-07-22T14:45:08;2.70;;;0.80;;
16199;SDS011;8207;52.494;4.654;2022-07-22T14:47:37;1.38;;;1.00;;
16199;SDS011;8207;52.494;4.654;2022-07-22T14:50:05;1.35;;;0.80;;
16199;SDS011;8207;52.494;4.654;2022-07-22T14:52:32;1.73;;;0.70;;
16199;SDS011;8207;52.494;4.654;2022-07-22T14:55:00;2.53;;;0.80;;
16199;SDS011;8207;52.494;4.654;2022-07-22T14:57:27;2.95;;;1.10;;
16199;SDS011;8207;52.494;4.654;2022-07-22T14:59:54;1.83;;;0.95;;
16199;SDS011;8207;52.494;4.654;2022-07-22T15:02:21;2.97;;;0.98;;
16199;SDS011;8207;52.494;4.654;2022-07-22T15:04:51;2.28;;;1.02;;
16199;SDS011;8207;52.494;4.654;2022-07-22T15:07:18;0.88;;;0.68;;
16199;SDS011;8207;52.494;4.654;2022-07-22T15:09:44;1.30;;;0.80;;